sensor_id;sensor_type;location;lat;lon;timestamp;P1;durP1;ratioP1;P2;durP2;ratioP2
53674;SDS011;39574;50.534;8.500;2023-02-01T00:01:04;8.8;;;4.8;;
53674;SDS011;39574;50.534;8.500;2023-02-01T00:05:59;9.3;;;5.3;;
53674;SDS011;39574;50.534;8.500;2023-02-01T00:10:58;9.2;;;5.5;;
53674;SDS011;39574;50.534;8.500;2023-02-01T00:16:01;10.4;;;5.9;;
53674;SDS011;39574;50.534;8.500;2023-02-01T00:20:54;12.3;;;6.2;;
53674;SDS011;39574;50.534;8.500;2023-02-01T00:25:53;12.2;;;6.3;;
53674;SDS011;39574;50.534;8.500;2023-02-01T00:30:55;12.3;;;6.5;;
53674;SDS011;39574;50.534;8.500;2023-02-01T00:35:50;12.8;;;6.7;;
53674;SDS011;39574;50.534;8.500;2023-02-01T00:40:49;12.8;;;7.0;;
53674;SDS011;39574;50.534;8.500;2023-02-01T00:45:48;13.7;;;6.9;;
53674;SDS011;39574;50.534;8.500;2023-02-01T00:50:46;13.4;;;6.8;;
53674;SDS011;39574;50.534;8.500;2023-02-01T00:55:45;13.2;;;6.6;;
53674;SDS011;39574;50.534;8.500;2023-02-01T01:00:43;13.2;;;6.7;;
53674;SDS011;39574;50.534;8.500;2023-02-01T01:05:42;13.1;;;7.0;;
53674;SDS011;39574;50.534;8.500;2023-02-01T01:10:41;14.1;;;7.0;;
53674;SDS011;39574;50.534;8.500;2023-02-01T01:15:40;14.7;;;7.4;;
53674;SDS011;39574;50.534;8.500;2023-02-01T01:20:39;15.6;;;7.8;;
53674;SDS011;39574;50.534;8.500;2023-02-01T01:25:37;15.4;;;8.0;;
53674;SDS011;39574;50.534;8.500;2023-02-01T01:30:35;16.5;;;8.3;;
53674;SDS011;39574;50.534;8.500;2023-02-01T01:35:34;16.3;;;8.4;;
53674;SDS011;39574;50.534;8.500;2023-02-01T01:40:33;16.4;;;8.7;;
53674;SDS011;39574;50.534;8.500;2023-02-01T01:45:32;16.1;;;8.5;;
53674;SDS011;39574;50.534;8.500;2023-02-01T01:50:31;15.9;;;8.8;;
53674;SDS011;39574;50.534;8.500;2023-02-01T01:55:30;15.4;;;8.9;;
53674;SDS011;39574;50.534;8.500;2023-02-01T02:00:28;15.4;;;9.1;;
53674;SDS011;39574;50.534;8.500;2023-02-01T02:05:26;16.9;;;9.3;;
53674;SDS011;39574;50.534;8.500;2023-02-01T02:10:25;17.4;;;9.2;;
53674;SDS011;39574;50.534;8.500;2023-02-01T02:15:24;16.0;;;8.8;;
53674;SDS011;39574;50.534;8.500;2023-02-01T02:20:28;16.0;;;8.5;;
53674;SDS011;39574;50.534;8.500;2023-02-01T02:25:55;15.4;;;8.2;;
53674;SDS011;39574;50.534;8.500;2023-02-01T02:30:38;14.6;;;7.9;;
53674;SDS011;39574;50.534;8.500;2023-02-01T02:35:20;14.8;;;7.7;;
53674;SDS011;39574;50.534;8.500;2023-02-01T02:40:18;14.5;;;7.4;;
53674;SDS011;39574;50.534;8.500;2023-02-01T02:45:17;14.7;;;7.2;;
53674;SDS011;39574;50.534;8.500;2023-02-01T02:50:16;14.3;;;7.2;;
53674;SDS011;39574;50.534;8.500;2023-02-01T02:55:13;13.8;;;6.7;;
53674;SDS011;39574;50.534;8.500;2023-02-01T03:00:12;14.5;;;6.4;;
53674;SDS011;39574;50.534;8.500;2023-02-01T03:05:11;13.1;;;6.1;;
53674;SDS011;39574;50.534;8.500;2023-02-01T03:10:10;12.8;;;5.9;;
53674;SDS011;39574;50.534;8.500;2023-02-01T03:15:08;13.1;;;5.9;;
53674;SDS011;39574;50.534;8.500;2023-02-01T03:20:06;13.2;;;5.5;;
53674;SDS011;39574;50.534;8.500;2023-02-01T03:25:06;12.3;;;5.2;;
53674;SDS011;39574;50.534;8.500;2023-02-01T03:30:06;12.3;;;4.9;;
53674;SDS011;39574;50.534;8.500;2023-02-01T03:35:03;12.7;;;4.7;;
53674;SDS011;39574;50.534;8.500;2023-02-01T03:40:03;13.2;;;4.5;;
53674;SDS011;39574;50.534;8.500;2023-02-01T03:45:01;13.7;;;4.5;;
53674;SDS011;39574;50.534;8.500;2023-02-01T03:50:00;13.8;;;4.1;;
53674;SDS011;39574;50.534;8.500;2023-02-01T03:54:57;13.7;;;4.1;;
53674;SDS011;39574;50.534;8.500;2023-02-01T04:00:04;14.0;;;3.8;;
53674;SDS011;39574;50.534;8.500;2023-02-01T04:04:55;14.5;;;3.9;;
53674;SDS011;39574;50.534;8.500;2023-02-01T04:09:53;14.8;;;4.2;;
53674;SDS011;39574;50.534;8.500;2023-02-01T04:14:52;19.4;;;5.8;;
53674;SDS011;39574;50.534;8.500;2023-02-01T04:19:51;20.3;;;6.3;;
53674;SDS011;39574;50.534;8.500;2023-02-01T04:24:49;18.8;;;5.6;;
53674;SDS011;39574;50.534;8.500;2023-02-01T04:29:48;16.7;;;5.0;;
53674;SDS011;39574;50.534;8.500;2023-02-01T04:34:46;14.8;;;4.4;;
53674;SDS011;39574;50.534;8.500;2023-02-01T04:39:45;13.6;;;3.9;;
53674;SDS011;39574;50.534;8.500;2023-02-01T04:44:44;14.6;;;4.0;;
53674;SDS011;39574;50.534;8.500;2023-02-01T04:49:43;15.5;;;4.0;;
53674;SDS011;39574;50.534;8.500;2023-02-01T04:54:41;14.5;;;4.0;;
53674;SDS011;39574;50.534;8.500;2023-02-01T04:59:40;14.3;;;4.1;;
53674;SDS011;39574;50.534;8.500;2023-02-01T05:04:39;14.7;;;4.2;;
53674;SDS011;39574;50.534;8.500;2023-02-01T05:14:36;14.0;;;4.0;;
53674;SDS011;39574;50.534;8.500;2023-02-01T05:19:35;14.7;;;4.0;;
53674;SDS011;39574;50.534;8.500;2023-02-01T05:24:33;14.4;;;4.2;;
53674;SDS011;39574;50.534;8.500;2023-02-01T05:29:32;15.9;;;4.5;;
53674;SDS011;39574;50.534;8.500;2023-02-01T05:34:31;14.9;;;4.4;;
53674;SDS011;39574;50.534;8.500;2023-02-01T05:39:30;14.5;;;4.5;;
53674;SDS011;39574;50.534;8.500;2023-02-01T05:44:28;15.5;;;4.6;;
53674;SDS011;39574;50.534;8.500;2023-02-01T05:49:27;16.5;;;5.0;;
53674;SDS011;39574;50.534;8.500;2023-02-01T05:54:26;15.8;;;4.8;;
53674;SDS011;39574;50.534;8.500;2023-02-01T05:59:24;15.8;;;4.6;;
53674;SDS011;39574;50.534;8.500;2023-02-01T06:04:23;17.3;;;4.8;;
53674;SDS011;39574;50.534;8.500;2023-02-01T06:09:22;15.7;;;4.4;;
53674;SDS011;39574;50.534;8.500;2023-02-01T06:14:20;16.2;;;4.3;;
53674;SDS011;39574;50.534;8.500;2023-02-01T06:19:19;14.9;;;4.1;;
53674;SDS011;39574;50.534;8.500;2023-02-01T06:24:18;14.2;;;4.2;;
53674;SDS011;39574;50.534;8.500;2023-02-01T06:29:16;13.5;;;4.3;;
53674;SDS011;39574;50.534;8.500;2023-02-01T06:34:15;14.1;;;4.3;;
53674;SDS011;39574;50.534;8.500;2023-02-01T06:39:14;15.9;;;4.5;;
53674;SDS011;39574;50.534;8.500;2023-02-01T06:44:16;19.4;;;4.8;;
53674;SDS011;39574;50.534;8.500;2023-02-01T06:49:11;18.3;;;4.5;;
53674;SDS011;39574;50.534;8.500;2023-02-01T06:54:10;17.5;;;4.6;;
53674;SDS011;39574;50.534;8.500;2023-02-01T06:59:09;16.7;;;4.6;;
53674;SDS011;39574;50.534;8.500;2023-02-01T07:04:08;16.5;;;4.7;;
53674;SDS011;39574;50.534;8.500;2023-02-01T07:09:06;16.9;;;4.8;;
53674;SDS011;39574;50.534;8.500;2023-02-01T07:14:05;18.9;;;4.6;;
53674;SDS011;39574;50.534;8.500;2023-02-01T07:19:03;18.0;;;4.4;;
53674;SDS011;39574;50.534;8.500;2023-02-01T07:24:02;17.5;;;4.3;;
53674;SDS011;39574;50.534;8.500;2023-02-01T07:29:01;17.9;;;4.5;;
53674;SDS011;39574;50.534;8.500;2023-02-01T07:33:59;17.1;;;4.6;;
53674;SDS011;39574;50.534;8.500;2023-02-01T07:38:58;16.4;;;4.3;;
53674;SDS011;39574;50.534;8.500;2023-02-01T07:43:57;19.6;;;6.4;;
53674;SDS011;39574;50.534;8.500;2023-02-01T07:48:55;19.2;;;6.1;;
53674;SDS011;39574;50.534;8.500;2023-02-01T07:53:54;19.2;;;5.7;;
53674;SDS011;39574;50.534;8.500;2023-02-01T07:58:53;17.1;;;5.1;;
53674;SDS011;39574;50.534;8.500;2023-02-01T08:03:52;17.8;;;5.2;;
53674;SDS011;39574;50.534;8.500;2023-02-01T08:08:50;18.3;;;4.8;;
53674;SDS011;39574;50.534;8.500;2023-02-01T08:13:49;16.3;;;4.5;;
53674;SDS011;39574;50.534;8.500;2023-02-01T08:18:47;16.1;;;4.4;;
53674;SDS011;39574;50.534;8.500;2023-02-01T08:23:46;16.4;;;4.1;;
53674;SDS011;39574;50.534;8.500;2023-02-01T08:28:46;15.4;;;4.0;;
53674;SDS011;39574;50.534;8.500;2023-02-01T08:33:44;17.6;;;4.3;;
53674;SDS011;39574;50.534;8.500;2023-02-01T08:38:42;17.9;;;4.5;;
53674;SDS011;39574;50.534;8.500;2023-02-01T08:43:41;18.4;;;4.7;;
53674;SDS011;39574;50.534;8.500;2023-02-01T08:48:40;18.5;;;4.7;;
53674;SDS011;39574;50.534;8.500;2023-02-01T08:53:38;16.3;;;4.5;;
53674;SDS011;39574;50.534;8.500;2023-02-01T08:58:37;17.2;;;4.4;;
53674;SDS011;39574;50.534;8.500;2023-02-01T09:03:35;15.6;;;4.3;;
53674;SDS011;39574;50.534;8.500;2023-02-01T09:08:34;16.9;;;4.4;;
53674;SDS011;39574;50.534;8.500;2023-02-01T09:13:33;15.5;;;4.3;;
53674;SDS011;39574;50.534;8.500;2023-02-01T09:18:31;16.1;;;4.3;;
53674;SDS011;39574;50.534;8.500;2023-02-01T09:23:30;15.8;;;4.3;;
53674;SDS011;39574;50.534;8.500;2023-02-01T09:28:29;15.4;;;4.9;;
53674;SDS011;39574;50.534;8.500;2023-02-01T09:33:28;16.0;;;4.9;;
53674;SDS011;39574;50.534;8.500;2023-02-01T09:38:26;15.7;;;4.7;;
53674;SDS011;39574;50.534;8.500;2023-02-01T09:43:29;17.2;;;4.5;;
53674;SDS011;39574;50.534;8.500;2023-02-01T09:48:24;16.3;;;4.6;;
53674;SDS011;39574;50.534;8.500;2023-02-01T09:53:23;15.7;;;4.5;;
53674;SDS011;39574;50.534;8.500;2023-02-01T09:58:22;15.9;;;4.6;;
53674;SDS011;39574;50.534;8.500;2023-02-01T10:03:19;15.8;;;4.5;;
53674;SDS011;39574;50.534;8.500;2023-02-01T10:08:19;14.4;;;4.3;;
53674;SDS011;39574;50.534;8.500;2023-02-01T10:13:21;15.6;;;4.7;;
53674;SDS011;39574;50.534;8.500;2023-02-01T10:18:20;15.7;;;4.7;;
53674;SDS011;39574;50.534;8.500;2023-02-01T10:23:18;16.9;;;4.7;;
53674;SDS011;39574;50.534;8.500;2023-02-01T10:28:14;17.5;;;4.6;;
53674;SDS011;39574;50.534;8.500;2023-02-01T10:33:14;17.3;;;4.6;;
53674;SDS011;39574;50.534;8.500;2023-02-01T10:38:12;18.4;;;4.6;;
53674;SDS011;39574;50.534;8.500;2023-02-01T10:43:09;16.8;;;4.3;;
53674;SDS011;39574;50.534;8.500;2023-02-01T10:48:07;16.4;;;4.2;;
53674;SDS011;39574;50.534;8.500;2023-02-01T10:53:06;18.1;;;4.6;;
53674;SDS011;39574;50.534;8.500;2023-02-01T10:58:06;16.7;;;4.4;;
53674;SDS011;39574;50.534;8.500;2023-02-01T11:03:18;16.1;;;4.5;;
53674;SDS011;39574;50.534;8.500;2023-02-01T11:08:02;16.9;;;5.4;;
53674;SDS011;39574;50.534;8.500;2023-02-01T11:13:01;17.3;;;4.9;;
53674;SDS011;39574;50.534;8.500;2023-02-01T11:18:13;16.5;;;4.6;;
53674;SDS011;39574;50.534;8.500;2023-02-01T11:22:58;17.5;;;5.3;;
53674;SDS011;39574;50.534;8.500;2023-02-01T11:27:57;20.5;;;6.9;;
53674;SDS011;39574;50.534;8.500;2023-02-01T11:32:56;20.8;;;6.3;;
53674;SDS011;39574;50.534;8.500;2023-02-01T11:37:54;19.2;;;5.5;;
53674;SDS011;39574;50.534;8.500;2023-02-01T11:42:54;16.2;;;4.8;;
53674;SDS011;39574;50.534;8.500;2023-02-01T11:47:52;16.0;;;3.9;;
53674;SDS011;39574;50.534;8.500;2023-02-01T11:52:54;15.0;;;3.9;;
53674;SDS011;39574;50.534;8.500;2023-02-01T11:57:52;14.0;;;3.8;;
53674;SDS011;39574;50.534;8.500;2023-02-01T12:02:54;13.4;;;3.9;;
53674;SDS011;39574;50.534;8.500;2023-02-01T12:07:50;12.9;;;3.9;;
53674;SDS011;39574;50.534;8.500;2023-02-01T12:12:47;12.6;;;3.9;;
53674;SDS011;39574;50.534;8.500;2023-02-01T12:17:51;14.5;;;4.0;;
53674;SDS011;39574;50.534;8.500;2023-02-01T12:22:46;13.6;;;3.6;;
53674;SDS011;39574;50.534;8.500;2023-02-01T12:27:55;13.2;;;3.6;;
53674;SDS011;39574;50.534;8.500;2023-02-01T12:32:44;14.5;;;3.8;;
53674;SDS011;39574;50.534;8.500;2023-02-01T12:37:46;14.5;;;3.7;;
53674;SDS011;39574;50.534;8.500;2023-02-01T12:42:39;16.4;;;4.7;;
53674;SDS011;39574;50.534;8.500;2023-02-01T12:47:37;15.6;;;5.0;;
53674;SDS011;39574;50.534;8.500;2023-02-01T12:52:37;14.4;;;4.5;;
53674;SDS011;39574;50.534;8.500;2023-02-01T12:57:35;13.9;;;4.3;;
53674;SDS011;39574;50.534;8.500;2023-02-01T13:02:35;12.8;;;3.9;;
53674;SDS011;39574;50.534;8.500;2023-02-01T13:07:34;13.7;;;3.8;;
53674;SDS011;39574;50.534;8.500;2023-02-01T13:12:32;13.4;;;3.8;;
53674;SDS011;39574;50.534;8.500;2023-02-01T13:17:30;12.3;;;3.7;;
53674;SDS011;39574;50.534;8.500;2023-02-01T13:22:29;11.8;;;3.6;;
53674;SDS011;39574;50.534;8.500;2023-02-01T13:27:26;10.8;;;3.4;;
53674;SDS011;39574;50.534;8.500;2023-02-01T13:32:29;11.2;;;3.2;;
53674;SDS011;39574;50.534;8.500;2023-02-01T13:37:28;11.3;;;3.3;;
53674;SDS011;39574;50.534;8.500;2023-02-01T13:42:23;11.4;;;3.2;;
53674;SDS011;39574;50.534;8.500;2023-02-01T13:47:23;12.2;;;3.2;;
53674;SDS011;39574;50.534;8.500;2023-02-01T13:52:23;11.3;;;3.3;;
53674;SDS011;39574;50.534;8.500;2023-02-01T13:57:33;11.2;;;3.1;;
53674;SDS011;39574;50.534;8.500;2023-02-01T14:02:59;11.3;;;3.2;;
53674;SDS011;39574;50.534;8.500;2023-02-01T14:07:18;12.8;;;3.4;;
53674;SDS011;39574;50.534;8.500;2023-02-01T14:12:47;12.9;;;3.6;;
53674;SDS011;39574;50.534;8.500;2023-02-01T14:17:29;12.2;;;3.4;;
53674;SDS011;39574;50.534;8.500;2023-02-01T14:22:31;12.3;;;3.4;;
53674;SDS011;39574;50.534;8.500;2023-02-01T14:27:14;11.9;;;3.3;;
53674;SDS011;39574;50.534;8.500;2023-02-01T14:32:14;11.7;;;3.0;;
53674;SDS011;39574;50.534;8.500;2023-02-01T14:37:09;13.0;;;3.4;;
53674;SDS011;39574;50.534;8.500;2023-02-01T14:42:19;13.8;;;3.5;;
53674;SDS011;39574;50.534;8.500;2023-02-01T14:47:29;13.2;;;3.4;;
53674;SDS011;39574;50.534;8.500;2023-02-01T14:52:06;13.0;;;3.3;;
53674;SDS011;39574;50.534;8.500;2023-02-01T14:57:04;12.5;;;3.3;;
53674;SDS011;39574;50.534;8.500;2023-02-01T15:02:02;10.8;;;3.1;;
53674;SDS011;39574;50.534;8.500;2023-02-01T15:07:04;13.5;;;4.3;;
53674;SDS011;39574;50.534;8.500;2023-02-01T15:12:01;13.9;;;4.9;;
53674;SDS011;39574;50.534;8.500;2023-02-01T15:16:59;13.5;;;4.7;;
53674;SDS011;39574;50.534;8.500;2023-02-01T15:21:58;17.1;;;5.3;;
53674;SDS011;39574;50.534;8.500;2023-02-01T15:27:01;16.5;;;4.8;;
53674;SDS011;39574;50.534;8.500;2023-02-01T15:31:55;21.7;;;6.2;;
53674;SDS011;39574;50.534;8.500;2023-02-01T15:36:53;19.8;;;5.2;;
53674;SDS011;39574;50.534;8.500;2023-02-01T15:41:53;16.8;;;4.4;;
53674;SDS011;39574;50.534;8.500;2023-02-01T15:46:51;15.9;;;4.0;;
53674;SDS011;39574;50.534;8.500;2023-02-01T15:51:50;14.7;;;3.8;;
53674;SDS011;39574;50.534;8.500;2023-02-01T16:01:47;15.3;;;3.9;;
53674;SDS011;39574;50.534;8.500;2023-02-01T16:06:46;14.5;;;3.7;;
53674;SDS011;39574;50.534;8.500;2023-02-01T16:11:52;13.9;;;3.9;;
53674;SDS011;39574;50.534;8.500;2023-02-01T16:16:43;13.8;;;3.9;;
53674;SDS011;39574;50.534;8.500;2023-02-01T16:21:42;15.8;;;4.6;;
53674;SDS011;39574;50.534;8.500;2023-02-01T16:26:40;18.4;;;5.5;;
53674;SDS011;39574;50.534;8.500;2023-02-01T16:31:39;18.6;;;5.6;;
53674;SDS011;39574;50.534;8.500;2023-02-01T16:36:38;18.3;;;5.7;;
53674;SDS011;39574;50.534;8.500;2023-02-01T16:41:36;16.6;;;5.1;;
53674;SDS011;39574;50.534;8.500;2023-02-01T16:46:38;15.9;;;4.8;;
53674;SDS011;39574;50.534;8.500;2023-02-01T16:51:34;14.7;;;4.4;;
53674;SDS011;39574;50.534;8.500;2023-02-01T16:56:33;14.3;;;4.2;;
53674;SDS011;39574;50.534;8.500;2023-02-01T17:01:31;13.9;;;4.3;;
53674;SDS011;39574;50.534;8.500;2023-02-01T17:06:30;12.2;;;3.9;;
53674;SDS011;39574;50.534;8.500;2023-02-01T17:11:29;12.3;;;3.8;;
53674;SDS011;39574;50.534;8.500;2023-02-01T17:16:28;12.5;;;3.6;;
53674;SDS011;39574;50.534;8.500;2023-02-01T17:21:26;13.8;;;3.7;;
53674;SDS011;39574;50.534;8.500;2023-02-01T17:26:25;13.6;;;4.0;;
53674;SDS011;39574;50.534;8.500;2023-02-01T17:31:23;12.5;;;4.0;;
53674;SDS011;39574;50.534;8.500;2023-02-01T17:36:22;13.4;;;4.3;;
53674;SDS011;39574;50.534;8.500;2023-02-01T17:41:21;12.6;;;3.8;;
53674;SDS011;39574;50.534;8.500;2023-02-01T17:46:20;13.3;;;4.2;;
53674;SDS011;39574;50.534;8.500;2023-02-01T17:51:19;13.4;;;4.0;;
53674;SDS011;39574;50.534;8.500;2023-02-01T17:56:18;11.0;;;3.6;;
53674;SDS011;39574;50.534;8.500;2023-02-01T18:01:17;12.6;;;3.8;;
53674;SDS011;39574;50.534;8.500;2023-02-01T18:06:15;13.0;;;3.9;;
53674;SDS011;39574;50.534;8.500;2023-02-01T18:11:14;12.3;;;4.1;;
53674;SDS011;39574;50.534;8.500;2023-02-01T18:16:16;12.6;;;4.1;;
53674;SDS011;39574;50.534;8.500;2023-02-01T18:21:11;11.0;;;4.1;;
53674;SDS011;39574;50.534;8.500;2023-02-01T18:26:10;10.3;;;4.1;;
53674;SDS011;39574;50.534;8.500;2023-02-01T18:31:15;10.8;;;4.4;;
53674;SDS011;39574;50.534;8.500;2023-02-01T18:36:08;13.0;;;5.2;;
53674;SDS011;39574;50.534;8.500;2023-02-01T18:41:07;12.1;;;4.7;;
53674;SDS011;39574;50.534;8.500;2023-02-01T18:46:04;10.4;;;4.3;;
53674;SDS011;39574;50.534;8.500;2023-02-01T18:51:03;9.6;;;4.0;;
53674;SDS011;39574;50.534;8.500;2023-02-01T18:56:02;7.5;;;3.6;;
53674;SDS011;39574;50.534;8.500;2023-02-01T19:01:03;8.3;;;3.8;;
53674;SDS011;39574;50.534;8.500;2023-02-01T19:05:59;7.7;;;3.7;;
53674;SDS011;39574;50.534;8.500;2023-02-01T19:10:58;9.4;;;3.6;;
53674;SDS011;39574;50.534;8.500;2023-02-01T19:15:56;9.9;;;3.7;;
53674;SDS011;39574;50.534;8.500;2023-02-01T19:20:56;10.1;;;3.7;;
53674;SDS011;39574;50.534;8.500;2023-02-01T19:25:54;10.6;;;4.0;;
53674;SDS011;39574;50.534;8.500;2023-02-01T19:30:59;10.2;;;4.2;;
53674;SDS011;39574;50.534;8.500;2023-02-01T19:35:55;10.3;;;4.6;;
53674;SDS011;39574;50.534;8.500;2023-02-01T19:40:50;10.8;;;4.6;;
53674;SDS011;39574;50.534;8.500;2023-02-01T19:45:49;11.3;;;4.4;;
53674;SDS011;39574;50.534;8.500;2023-02-01T19:50:47;11.9;;;4.5;;
53674;SDS011;39574;50.534;8.500;2023-02-01T19:55:46;12.1;;;4.4;;
53674;SDS011;39574;50.534;8.500;2023-02-01T20:00:45;14.6;;;4.9;;
53674;SDS011;39574;50.534;8.500;2023-02-01T20:05:43;15.6;;;5.4;;
53674;SDS011;39574;50.534;8.500;2023-02-01T20:10:42;15.2;;;5.2;;
53674;SDS011;39574;50.534;8.500;2023-02-01T20:15:41;15.1;;;5.1;;
53674;SDS011;39574;50.534;8.500;2023-02-01T20:20:40;15.6;;;5.2;;
53674;SDS011;39574;50.534;8.500;2023-02-01T20:25:38;15.0;;;4.9;;
53674;SDS011;39574;50.534;8.500;2023-02-01T20:30:37;14.7;;;4.9;;
53674;SDS011;39574;50.534;8.500;2023-02-01T20:35:36;13.8;;;4.8;;
53674;SDS011;39574;50.534;8.500;2023-02-01T20:40:35;12.8;;;4.7;;
53674;SDS011;39574;50.534;8.500;2023-02-01T20:45:33;13.6;;;4.6;;
53674;SDS011;39574;50.534;8.500;2023-02-01T20:50:32;14.6;;;4.9;;
53674;SDS011;39574;50.534;8.500;2023-02-01T20:55:31;14.5;;;4.5;;
53674;SDS011;39574;50.534;8.500;2023-02-01T21:00:29;14.2;;;4.6;;
53674;SDS011;39574;50.534;8.500;2023-02-01T21:05:28;13.2;;;4.5;;
53674;SDS011;39574;50.534;8.500;2023-02-01T21:10:27;13.3;;;4.8;;
53674;SDS011;39574;50.534;8.500;2023-02-01T21:15:26;13.4;;;5.0;;
53674;SDS011;39574;50.534;8.500;2023-02-01T21:20:24;12.4;;;4.9;;
53674;SDS011;39574;50.534;8.500;2023-02-01T21:25:23;13.5;;;4.9;;
53674;SDS011;39574;50.534;8.500;2023-02-01T21:30:22;13.5;;;4.7;;
53674;SDS011;39574;50.534;8.500;2023-02-01T21:35:21;14.8;;;4.7;;
53674;SDS011;39574;50.534;8.500;2023-02-01T21:40:19;15.3;;;4.5;;
53674;SDS011;39574;50.534;8.500;2023-02-01T21:45:18;15.5;;;4.8;;
53674;SDS011;39574;50.534;8.500;2023-02-01T21:50:18;16.6;;;4.9;;
53674;SDS011;39574;50.534;8.500;2023-02-01T21:55:16;16.1;;;5.0;;
53674;SDS011;39574;50.534;8.500;2023-02-01T22:05:13;16.3;;;4.8;;
53674;SDS011;39574;50.534;8.500;2023-02-01T22:10:14;15.2;;;4.6;;
53674;SDS011;39574;50.534;8.500;2023-02-01T22:15:11;13.9;;;4.7;;
53674;SDS011;39574;50.534;8.500;2023-02-01T22:20:10;14.8;;;4.5;;
53674;SDS011;39574;50.534;8.500;2023-02-01T22:25:08;14.5;;;4.4;;
53674;SDS011;39574;50.534;8.500;2023-02-01T22:30:07;14.7;;;4.2;;
53674;SDS011;39574;50.534;8.500;2023-02-01T22:35:06;15.8;;;4.5;;
53674;SDS011;39574;50.534;8.500;2023-02-01T22:40:04;15.6;;;4.4;;
53674;SDS011;39574;50.534;8.500;2023-02-01T22:45:03;14.1;;;3.8;;
53674;SDS011;39574;50.534;8.500;2023-02-01T22:50:04;11.3;;;3.3;;
53674;SDS011;39574;50.534;8.500;2023-02-01T22:55:00;12.7;;;3.5;;
53674;SDS011;39574;50.534;8.500;2023-02-01T22:59:59;13.1;;;4.1;;
53674;SDS011;39574;50.534;8.500;2023-02-01T23:04:58;14.4;;;4.5;;
53674;SDS011;39574;50.534;8.500;2023-02-01T23:09:56;15.0;;;4.7;;
53674;SDS011;39574;50.534;8.500;2023-02-01T23:14:55;15.9;;;5.0;;
53674;SDS011;39574;50.534;8.500;2023-02-01T23:19:54;15.6;;;5.5;;
53674;SDS011;39574;50.534;8.500;2023-02-01T23:24:53;16.2;;;5.4;;
53674;SDS011;39574;50.534;8.500;2023-02-01T23:29:52;15.5;;;5.1;;
53674;SDS011;39574;50.534;8.500;2023-02-01T23:34:50;16.3;;;5.0;;
53674;SDS011;39574;50.534;8.500;2023-02-01T23:39:49;16.0;;;4.9;;
53674;SDS011;39574;50.534;8.500;2023-02-01T23:44:48;15.0;;;4.9;;
53674;SDS011;39574;50.534;8.500;2023-02-01T23:49:46;15.7;;;5.2;;
53674;SDS011;39574;50.534;8.500;2023-02-01T23:54:45;15.7;;;5.1;;
53674;SDS011;39574;50.534;8.500;2023-02-01T23:59:44;15.8;;;5.1;;
